Detroit, MI

9:21 PM EDT on September 04, 2015 (GMT -0400)
Detroit Ave. & Fort Park | | Change Station
CLOSE
Current Station
Personal Weather Station
Location: Lincoln Park, MI
Elevation: 587 ft
Nearby Weather Stations

Elev 587 ft 42.24 °N, 83.18 °W | Updated 1 day ago

Overcast
Overcast
76 °F
Feels Like 76 °F
N
4
Wind Variable Wind from SE
Gusts mph

Today
High -- | Low -- °F
--% Chance of Precip.
Yesterday
High -- | Low -- °F
Precip. -- in
7:01 AM 8:02 PM
Waning Gibbous, 54% visible
Pressure 30.05 in
Visibility 10.0 miles
Clouds Few 4000 ft
Overcast 20000 ft
Dew Point 69 °F
Humidity 79%
Rainfall in
Snow Depth Not available.
UV 0 out of 12
Pollen 7.20 out of 12
Air Quality Not available.
Flu Activity Not available.
METAR KDTW 050053Z 10004KT 10SM FEW040 OVC200 24/21 A3006 RMK AO2 SLP174 T02390206
Pressure 30.05 in
Visibility 10.0 miles
Clouds Few 4000 ft
Overcast 20000 ft
Dew Point 69 °F
Humidity 79%
Rainfall in
Snow Depth Not available.
UV 0 out of 12
Pollen 7.20 out of 12
Air Quality Not available.
Flu Activity Not available.
METAR KDTW 050053Z 10004KT 10SM FEW040 OVC200 24/21 A3006 RMK AO2 SLP174 T02390206

10-Day Weather Forecast

×

Almanac

Astronomy

Sep. 04, 2015 Rise Set
Actual Time
Civil Twilight
Nautical Twilight
Astronomical Twilight
Moon
Length of Visible Light
Length of Day
Tomorrow will be .
, % of the Moon is Illuminated

Today's Extremes

State Highs State Lows

Community

WunderPhotos

Upload Photos

1,852,374 photos uploaded!

WunderBlogs® & News

Nearby

Air Quality

  Air Quality AQ Index Pollutant
Not available.

Snow Depth

Station Depth Elevation

Earthquake Activity

City Distance Mag. Time & Date
Minimum magnitude displayed is 2.5.

Coastal Water Temperatures

Place Temperature

Stations

Nearby Weather Stations

Station Location Temp. Windchill Dew Point Humidity Wind Precip. Elev Updated Type